»·PEaware :: N73YZ KSNA-L71

N73YZ :: KSNA-L71

FLIGHT INFORMATION

Flight Status: Arrived
Operator: Privately registered:
United States
More flights under this callsign
Pilot: William K. (10629)
Aircraft: CESSNA 210 CENTURION
(c210)
More flights by this aircraft type
Origin: KSNA John Wayne-Orange Co
United States
Destination: L71 California City Mun
United States
More flights between these airports :: More routes between these airports
Route: +V25 LAX V201 PMD
File this flight plan on PilotEdge
Remarks:
Altitude:
(Current/Filed)
9,000ft
Speed:
(Current/Filed)
160kts
Departed: 10-Sep-16 02:18 PM
Arrived: 10-Sep-16 03:10 PM
Distance/Time
Traveled:
89nm/0:51
Distance/Time
To Go:
Arrived

Flight Plot

Page will automatically refresh every two minutes.


Map Options




Map Legend


Flown Route
Filed Route
Departure Airport
Arrival Airport
Navaid (VOR, NDB)
Fix

Horizontal Profiles

Position Reports

Time Latitude Longitude Heading Altitude Ground
Speed
10-Sep-16 14:00 33.672481 -117.866875 210 60ft 0kts
10-Sep-16 14:01 33.672481 -117.866875 210 60ft 0kts
10-Sep-16 14:02 33.672481 -117.866875 210 60ft 0kts
10-Sep-16 14:03 33.672481 -117.866875 210 60ft 0kts
10-Sep-16 14:04 33.672481 -117.866875 210 60ft 0kts
10-Sep-16 14:05 33.672481 -117.866875 210 60ft 0kts
10-Sep-16 14:06 33.672481 -117.866875 210 60ft 0kts
10-Sep-16 14:07 33.672481 -117.866875 210 60ft 0kts
10-Sep-16 14:08 33.672481 -117.866875 210 60ft 0kts
10-Sep-16 14:09 33.672481 -117.866875 210 60ft 0kts
10-Sep-16 14:10 33.672481 -117.866875 210 60ft 0kts
10-Sep-16 14:11 33.672588 -117.867436 331 60ft 11kts
10-Sep-16 14:12 33.677436 -117.864994 27 60ft 25kts
10-Sep-16 14:13 33.680024 -117.863729 313 60ft 0kts
10-Sep-16 14:14 33.679677 -117.864466 206 60ft 28kts
10-Sep-16 14:15 33.663438 -117.876322 226 643ft 79kts
10-Sep-16 14:16 33.647946 -117.899980 230 1452ft 100kts
10-Sep-16 14:17 33.631630 -117.925264 230 2235ft 94kts
10-Sep-16 14:18 33.615794 -117.950298 230 3031ft 96kts
10-Sep-16 14:19 33.610709 -117.981935 263 3824ft 101kts
10-Sep-16 14:20 33.609578 -118.015694 263 4621ft 102kts
10-Sep-16 14:21 33.608532 -118.049187 263 5410ft 101kts
10-Sep-16 14:22 33.607484 -118.083488 263 6005ft 120kts
10-Sep-16 14:23 33.605183 -118.131493 263 6004ft 156kts
10-Sep-16 14:24 33.602399 -118.183702 263 6007ft 156kts
10-Sep-16 14:25 33.599657 -118.233344 263 6011ft 155kts
10-Sep-16 14:26 33.611705 -118.275377 355 6169ft 162kts
10-Sep-16 14:27 33.649634 -118.266831 10 6775ft 159kts
10-Sep-16 14:28 33.687656 -118.257392 10 7390ft 158kts
10-Sep-16 14:29 33.726802 -118.248000 10 8028ft 157kts
10-Sep-16 14:30 33.765654 -118.238986 10 8665ft 157kts
10-Sep-16 14:31 33.800580 -118.231081 10 9060ft 168kts
10-Sep-16 14:32 33.833872 -118.223583 10 8965ft 180kts
10-Sep-16 14:33 33.871087 -118.215210 10 9010ft 178kts
10-Sep-16 14:34 33.914520 -118.208679 342 9013ft 177kts
10-Sep-16 14:35 33.953602 -118.222949 341 9010ft 177kts
10-Sep-16 14:36 33.992938 -118.237470 341 9012ft 173kts
10-Sep-16 14:37 34.029113 -118.251070 341 9000ft 173kts
10-Sep-16 14:38 34.066477 -118.265527 341 8999ft 173kts
10-Sep-16 14:39 34.082168 -118.271715 341 8998ft 173kts
10-Sep-16 14:40 34.125519 -118.288975 341 8995ft 174kts
10-Sep-16 14:41 34.169385 -118.306554 341 8993ft 174kts
10-Sep-16 14:42 34.212692 -118.296464 39 8996ft 169kts
10-Sep-16 14:43 34.251789 -118.266524 30 8997ft 171kts
10-Sep-16 14:44 34.293354 -118.240779 27 9009ft 171kts
10-Sep-16 14:45 34.328848 -118.220571 26 9018ft 172kts
10-Sep-16 14:46 34.372241 -118.196723 24 8994ft 174kts
10-Sep-16 14:47 34.417386 -118.176117 22 9003ft 175kts
10-Sep-16 14:48 34.461666 -118.154069 23 9006ft 176kts
10-Sep-16 14:49 34.505698 -118.131033 24 9008ft 177kts
10-Sep-16 14:50 34.550131 -118.107386 24 9010ft 177kts
10-Sep-16 14:51 34.592266 -118.084822 24 9011ft 178kts
10-Sep-16 14:52 34.638044 -118.062879 9 9012ft 178kts
10-Sep-16 14:53 34.686972 -118.056438 4 9009ft 178kts
10-Sep-16 14:54 34.735108 -118.050723 4 9007ft 178kts
10-Sep-16 14:55 34.783336 -118.044917 4 9003ft 178kts
10-Sep-16 14:56 34.832123 -118.038966 4 9001ft 178kts
10-Sep-16 14:57 34.881246 -118.032913 4 8963ft 180kts
10-Sep-16 14:58 34.929643 -118.026789 4 8991ft 177kts
10-Sep-16 14:59 34.978000 -118.021335 5 8984ft 175kts
10-Sep-16 15:00 35.023953 -118.019209 4 8135ft 149kts
10-Sep-16 15:01 35.060840 -118.017705 4 7051ft 133kts
10-Sep-16 15:02 35.088680 -118.016482 4 6223ft 132kts
10-Sep-16 15:03 35.124211 -118.014788 4 5144ft 128kts
10-Sep-16 15:04 35.148788 -117.993589 71 4047ft 127kts
10-Sep-16 15:05 35.157728 -117.985352 239 2804ft 124kts
10-Sep-16 15:06 35.151484 -118.015734 256 2439ft 57kts
10-Sep-16 15:07 35.151281 -118.016782 78 2439ft 28kts
10-Sep-16 15:08 35.153044 -118.008264 292 2439ft 5kts
10-Sep-16 15:09 35.153033 -118.008349 259 2439ft 0kts

Navigation Log

Ident Type
1. KSNA Airport
2. LAX Navaid
3. BERRI Fix
4. SOLED Fix
5. PMD Navaid
6. L71 Airport